LJLJ/LJU METAR and TAF weather

Enter ICAO airport designator
Station Type Date Time Source
LJLJ METAR 2022/01/29 02:00 UTC NOAA

LJLJ 290200Z 25001KT 9999 FEW070 M02/M07 Q1028 NOSIG


Station Type Date Time Source
LJLJ Decoded METAR 2022/01/29 02:00 UTC NOAA

Ljubljana / Brnik, Slovenia (LJLJ) 46-13N 014-29E 362M
Jan 28, 2022 - 09:00 PM EST / 2022.01.29 0200 UTC
Wind: from the WSW (250 degrees) at 1 MPH (1 KT):0
Visibility: greater than 7 mile(s):0
Sky conditions: mostly clear
Temperature: 28 F (-2 C)
Dew Point: 19 F (-7 C)
Relative Humidity: 68%
Pressure (altimeter): 30.36 in. Hg (1028 hPa)
ob: LJLJ 290200Z 25001KT 9999 FEW070 M02/M07 Q1028 NOSIG
cycle: 2

Station Type Date Time Source
LJLJ TAF 2022/01/28 18:06 UTC NOAA

TAF LJLJ 281700Z 2818/2918 31007KT 9999 FEW060

Example: see airport list